Pagina principale
METAR-TAF:

METAR-TAF

Aeroporti :

Aeroporto di Almaty

Almaty, Kazakistan

latitudine: 43-14N, longitudine: 076-56E, altezza: 847 m

Osservazione

Il bollettino è stato emesso 30 minuti fa, alle 23:00 UTC
Vento 2 kt da sud
Temperature 3°C
Umidità 93%
Pressione 1022 hPa
Visibilità 10 km o più

METAR: UAAA 242300Z 18001MPS 9999 NSC 03/02 Q1022 R05R/CLRD65 NOSIG

Ora: 05:30 (23:30 UTC)

Previsione

Il bollettino è stato emesso 6 ore e 30 minuti fa, alle 17:00 UTC
Previsione valida dal 24 alle 18 UTC al 25 alle 18 UTC
Vento 10 kt da sud-est
Visibilità 10 km o più
Nubi sparse ad un'altezza di 5000 ft, Cumulonembo.
Nuvoloso ad un'altezza di 10000 ft
Temporaneamente
dal 24 alle 18 UTC al 25 alle 02 UTC
Visibilità: 3000 m
foschia, fumo
Evoluzione graduale
dal 25 alle 02 UTC al 25 alle 03 UTC
Vento 12 kt da nord-est

TAF: UAAA 241700Z 2418/2518 14005MPS 9999 SCT050CB BKN100 TX22/2509Z TN05/2501Z TEMPO 2418/2502 3000 BR FU BECMG 2502/2503 04006MPS

Osservazioni e previsioni meteorologiche di più di 4000 aeroporti (messaggi METAR e TAF).

Le stazioni disponibili sono rappresentate dai dischi gialli e rossi sulla carta.

Puntare il mouse per vedere il nome della stazione.

Clicca sopra per visualizzare le osservazioni e previsioni meteorologiche.

Per cambiare la mappa : fare clic sui pulsanti verdi con una croce nera per ingrandire, il pulsante verde con un trattino per diminuire, o sulla freccia verde per le mappe adiacenti.


METAR-TAF: